Главная страница
METAR-TAF:

METAR-TAF

Аэропорты :

Кальмар, Швеция

широта: 56-44N, долгота: 016-18E, высота над уровнем моря: 16 м

Текущие метеонаблюдения

Эта сводка был подготовлена 18 минут назад, в 15:20 UTC
Ветер 6 Узел от северо-северо-восточный, изменяющийся между северный и восточно-северо-восточный
Температура 14°C
Влажность 100%
Давление 1004 hPa
Видимость: 6000 м
дождь,

METAR: ESMQ 221520Z AUTO 03006KT 360V060 6000 RA BKN003/// OVC006/// 14/14 Q1004

Время: 17:38 (15:38 UTC)


TAF: отсутствует

Метеонаблюдения и прогнозы для более 4000 аэропортов (сводки METAR и TAF).

Имеющиеся станции представлены на карте желтыми и красными точками.

Чтобы увидеть название станции, наведите на нее мышь.

Затем щелкните, чтобы увидеть метеонаблюдения и метеопрогнозы.

Управление картой: чтобы увеличить масштаб, щелкните зеленые кнопки с черным крестиком; чтобы уменьшить масштаб, щелкните зеленую кнопку с тире; для просмотра соседних карт щелкайте зеленые стрелки.


METAR-TAF: